Time;durP1;ratioP1;P1;durP2;ratioP2;P2;SDS_P1;SDS_P2;PMS_P1;PMS_P2;Temp;Humidity;BMP_temperature;BMP_pressure;BME280_temperature;BME280_humidity;BME280_pressure;Samples;Min_cycle;Max_cycle;Signal;HPM_P1;HPM_P2
2022/09/22 00:01:35;;;;;;;0.52;0.40;;;;;;;24.93;29.51;97020.50;5014781;28;20363;-38
2022/09/22 00:04:04;;;;;;;1.80;0.50;;;;;;;24.86;29.81;97015.41;5014816;28;20024;-36
2022/09/22 00:06:33;;;;;;;0.43;0.32;;;;;;;24.92;29.67;97018.19;5014475;28;20018;-36
2022/09/22 00:09:00;;;;;;;0.52;0.30;;;;;;;24.82;29.66;97019.75;5014574;28;20068;-37
2022/09/22 00:11:28;;;;;;;1.33;0.45;;;;;;;24.95;29.18;97022.75;5014537;28;20084;-36
2022/09/22 00:13:58;;;;;;;0.60;0.35;;;;;;;24.87;29.57;97027.28;5014390;28;20026;-36
2022/09/22 00:16:27;;;;;;;1.05;0.40;;;;;;;24.88;29.49;97023.25;5014405;28;20026;-36
2022/09/22 00:18:53;;;;;;;2.72;0.40;;;;;;;24.88;29.53;97026.00;5014802;28;20189;-36
2022/09/22 00:21:20;;;;;;;1.02;0.40;;;;;;;24.84;29.48;97020.00;5014525;28;20415;-36
2022/09/22 00:23:47;;;;;;;0.40;0.35;;;;;;;24.83;29.91;97026.81;5013074;28;20111;-36
2022/09/22 00:26:16;;;;;;;0.95;0.65;;;;;;;24.77;29.63;97028.81;5014231;28;20051;-35
2022/09/22 00:28:44;;;;;;;1.85;0.50;;;;;;;24.81;29.84;97024.53;5014368;28;20032;-37
2022/09/22 00:31:19;;;;;;;0.40;0.30;;;;;;;24.77;29.73;97023.25;5014163;28;20029;-37
2022/09/22 00:33:45;;;;;;;0.57;0.45;;;;;;;24.87;29.49;97027.28;5014237;28;20026;-36
2022/09/22 00:36:11;;;;;;;1.48;0.40;;;;;;;24.87;29.14;97021.72;5013927;28;20107;-36
2022/09/22 00:38:38;;;;;;;4.32;0.50;;;;;;;24.80;29.35;97016.72;5014090;28;20022;-37
2022/09/22 00:41:04;;;;;;;1.95;0.43;;;;;;;24.77;29.69;97012.16;5013877;28;20546;-36
2022/09/22 00:43:34;;;;;;;1.02;0.40;;;;;;;24.78;29.55;97013.69;5013959;28;20077;-36
2022/09/22 00:46:24;;;;;;;0.80;0.40;;;;;;;24.69;29.36;97011.94;5014483;28;20414;-36
2022/09/22 00:49:02;;;;;;;0.88;0.40;;;;;;;24.71;29.14;97012.19;5013993;28;20030;-36
2022/09/22 00:51:31;;;;;;;0.47;0.30;;;;;;;24.72;29.53;97010.19;5013724;28;20021;-36
2022/09/22 00:53:59;;;;;;;0.60;0.52;;;;;;;24.72;29.55;97007.41;5013115;28;20026;-36
2022/09/22 00:56:30;;;;;;;0.80;0.30;;;;;;;24.78;29.23;97008.91;5013840;28;20022;-37
2022/09/22 00:59:00;;;;;;;0.77;0.32;;;;;;;24.72;29.08;97010.94;5013927;28;20054;-38
2022/09/22 01:01:26;;;;;;;0.47;0.30;;;;;;;24.74;29.34;97004.84;5012430;28;20490;-36
2022/09/22 01:03:52;;;;;;;0.47;0.30;;;;;;;24.78;29.31;96999.81;5013719;28;20045;-36
2022/09/22 01:06:25;;;;;;;0.47;0.30;;;;;;;24.60;29.51;97003.91;5013766;28;20355;-36
2022/09/22 01:08:51;;;;;;;;;;;;;;;24.64;29.53;97005.13;5014265;28;20030;-36
2022/09/22 01:11:19;;;;;;;2.28;0.50;;;;;;;24.72;29.38;97004.63;5012503;28;20270;-37
2022/09/22 01:13:53;;;;;;;1.73;0.30;;;;;;;24.74;29.33;96999.31;5013868;28;20022;-37
2022/09/22 01:16:22;;;;;;;0.85;0.40;;;;;;;24.71;29.20;96990.00;5013365;28;20490;-36
2022/09/22 01:19:01;;;;;;;0.68;0.40;;;;;;;24.69;29.12;96990.50;5013498;28;20034;-36
2022/09/22 01:21:48;;;;;;;0.75;0.38;;;;;;;24.70;29.27;96985.72;5013626;28;20075;-36
2022/09/22 01:24:38;;;;;;;1.13;0.40;;;;;;;24.73;29.21;96989.50;5013542;28;20117;-38
2022/09/22 01:27:52;;;;;;;1.60;0.52;;;;;;;24.64;29.06;96996.81;5013660;28;20390;-36
2022/09/22 01:30:37;;;;;;;0.35;0.30;;;;;;;24.33;29.73;96992.31;5025974;28;20045;-36
2022/09/22 01:33:24;;;;;;;0.65;0.30;;;;;;;24.65;29.38;96989.25;5013523;28;20026;-36
2022/09/22 01:36:07;;;;;;;1.67;0.50;;;;;;;24.59;29.01;96997.59;5013430;28;20022;-37
2022/09/22 01:38:33;;;;;;;0.50;0.20;;;;;;;24.59;29.23;97002.38;5013254;28;20470;-38
2022/09/22 01:41:07;;;;;;;0.65;0.40;;;;;;;24.63;29.67;96992.53;5013358;28;20084;-36
2022/09/22 01:43:58;;;;;;;0.65;0.43;;;;;;;24.68;29.05;96994.53;5013462;28;20022;-36
2022/09/22 01:46:33;;;;;;;0.57;0.43;;;;;;;24.64;29.17;96994.03;5013272;28;20371;-36
2022/09/22 01:49:02;;;;;;;0.50;0.30;;;;;;;24.67;28.82;96992.28;5013469;28;20022;-36
2022/09/22 01:51:33;;;;;;;1.33;0.40;;;;;;;24.65;28.72;97001.09;5013149;28;20032;-36
2022/09/22 01:54:11;;;;;;;1.10;0.38;;;;;;;24.64;29.01;96991.25;5013517;28;20026;-36
2022/09/22 01:56:39;;;;;;;0.70;0.38;;;;;;;24.57;29.62;96983.47;5013608;28;20026;-37
2022/09/22 01:59:08;;;;;;;1.35;0.40;;;;;;;24.61;29.17;96988.75;5012956;28;20029;-36
2022/09/22 02:01:44;;;;;;;0.28;0.28;;;;;;;24.56;29.30;96975.66;5012216;28;20087;-36
2022/09/22 02:04:19;;;;;;;0.75;0.40;;;;;;;24.64;29.08;96982.94;5013314;28;20109;-38
2022/09/22 02:06:53;;;;;;;0.40;0.30;;;;;;;24.57;28.65;96983.47;5016868;28;20029;-36
2022/09/22 02:09:22;;;;;;;0.30;0.30;;;;;;;24.65;28.57;96980.94;5016882;28;20026;-36
2022/09/22 02:11:48;;;;;;;0.55;0.32;;;;;;;24.64;28.94;96980.16;5016887;28;20100;-36
2022/09/22 02:14:15;;;;;;;1.05;0.40;;;;;;;24.57;28.59;96977.94;5015465;28;20197;-37
2022/09/22 02:16:41;;;;;;;0.50;0.40;;;;;;;24.63;28.55;96984.19;5016727;28;20053;-36
2022/09/22 02:19:24;;;;;;;0.98;0.30;;;;;;;24.60;28.17;96976.88;5016472;28;20053;-36
2022/09/22 02:21:50;;;;;;;1.15;0.47;;;;;;;24.61;28.48;96972.09;5016873;28;20038;-36
2022/09/22 02:24:33;;;;;;;0.47;0.30;;;;;;;24.54;28.62;96973.38;5016787;28;20114;-36
2022/09/22 02:27:19;;;;;;;0.60;0.30;;;;;;;24.57;28.15;96958.50;5016643;28;20034;-37
2022/09/22 02:29:50;;;;;;;0.57;0.40;;;;;;;24.58;28.81;96971.13;5016504;28;20458;-36
2022/09/22 02:32:17;;;;;;;1.67;0.45;;;;;;;24.60;28.43;96963.03;5016609;28;20036;-36
2022/09/22 02:34:44;;;;;;;1.95;0.40;;;;;;;24.60;28.63;96974.13;5016382;28;20022;-36
2022/09/22 02:37:32;;;;;;;0.80;0.30;;;;;;;24.59;28.74;96969.84;5016089;28;20518;-38
2022/09/22 02:40:24;;;;;;;0.50;0.30;;;;;;;24.50;28.57;96959.00;5014995;28;20042;-37
2022/09/22 02:43:30;;;;;;;0.40;0.40;;;;;;;24.59;28.29;96967.09;5016182;28;20025;-37
2022/09/22 02:46:00;;;;;;;0.85;0.40;;;;;;;24.55;28.51;96963.81;5016001;28;20058;-36
2022/09/22 02:48:31;;;;;;;1.00;0.30;;;;;;;24.57;28.44;96966.84;5015306;28;20451;-36
2022/09/22 02:50:58;;;;;;;0.38;0.30;;;;;;;24.49;28.17;96962.28;5016232;28;20033;-37
2022/09/22 02:53:23;;;;;;;0.50;0.30;;;;;;;24.57;28.61;96961.28;5016030;28;20433;-36
2022/09/22 02:55:49;;;;;;;1.88;0.40;;;;;;;24.43;28.33;96956.78;5015739;28;20026;-37
2022/09/22 02:58:16;;;;;;;0.35;0.32;;;;;;;24.56;28.12;96957.00;5015852;28;20032;-36
2022/09/22 03:00:42;;;;;;;0.52;0.30;;;;;;;24.57;28.54;96961.28;5015599;28;20026;-36
2022/09/22 03:03:10;;;;;;;0.70;0.38;;;;;;;24.56;28.09;96954.22;5015695;28;20028;-36
2022/09/22 03:05:36;;;;;;;0.70;0.30;;;;;;;24.48;28.84;96958.03;5015940;28;20029;-36
2022/09/22 03:08:02;;;;;;;0.73;0.40;;;;;;;24.52;28.11;96959.28;5015649;28;20038;-36
2022/09/22 03:10:27;;;;;;;0.40;0.30;;;;;;;24.50;28.76;96955.50;5015725;28;20054;-36
2022/09/22 03:12:53;;;;;;;0.55;0.40;;;;;;;24.47;28.59;96954.50;5015560;28;20032;-36
2022/09/22 03:15:18;;;;;;;0.95;0.50;;;;;;;24.48;28.76;96961.53;5015609;28;20109;-36
2022/09/22 03:17:46;;;;;;;0.40;0.40;;;;;;;24.52;27.88;96961.28;5014640;28;20033;-36
2022/09/22 03:20:12;;;;;;;0.47;0.40;;;;;;;24.50;27.95;96953.47;5015564;28;20034;-36
2022/09/22 03:22:38;;;;;;;0.70;0.40;;;;;;;24.50;28.16;96952.72;5015371;28;20034;-37
2022/09/22 03:25:05;;;;;;;0.40;0.30;;;;;;;24.47;28.18;96950.97;5015541;28;20021;-36
2022/09/22 03:27:30;;;;;;;0.50;0.30;;;;;;;24.41;28.45;96958.53;5015239;28;20525;-36
2022/09/22 03:29:55;;;;;;;0.70;0.70;;;;;;;24.47;28.24;96948.97;5013996;28;20033;-37
2022/09/22 03:32:21;;;;;;;0.80;0.40;;;;;;;24.44;29.38;96955.50;5015294;28;20052;-36
2022/09/22 03:34:47;;;;;;;0.73;0.40;;;;;;;24.41;28.07;96944.66;5015330;28;20018;-38
2022/09/22 03:37:14;;;;;;;0.30;0.30;;;;;;;24.43;27.81;96951.22;5013650;28;20406;-36
2022/09/22 03:39:39;;;;;;;1.73;0.50;;;;;;;24.49;28.32;96946.41;5014938;28;20360;-36
2022/09/22 03:42:05;;;;;;;1.17;0.40;;;;;;;24.32;28.83;96940.16;5015588;28;20037;-36
2022/09/22 03:44:30;;;;;;;0.40;0.30;;;;;;;24.49;27.86;96943.63;5015019;28;20124;-36
2022/09/22 03:46:56;;;;;;;0.90;0.40;;;;;;;24.53;28.38;96941.38;5015018;28;20028;-36
2022/09/22 03:49:23;;;;;;;0.55;0.25;;;;;;;24.40;28.67;96940.38;5014913;28;20033;-36
2022/09/22 03:51:49;;;;;;;0.35;0.20;;;;;;;24.51;27.96;96954.22;5015005;28;20026;-37
2022/09/22 03:54:15;;;;;;;1.27;0.40;;;;;;;24.44;27.98;96949.22;5014752;28;20021;-37
2022/09/22 03:56:40;;;;;;;0.40;0.30;;;;;;;24.51;28.96;96954.97;5014799;28;20370;-36
2022/09/22 03:59:06;;;;;;;0.30;0.30;;;;;;;24.48;28.39;96958.03;5014657;28;20030;-36
2022/09/22 04:01:32;;;;;;;1.20;0.40;;;;;;;24.50;28.18;96956.25;5014731;28;20024;-35
2022/09/22 04:03:57;;;;;;;0.52;0.32;;;;;;;24.50;27.87;96961.03;5014610;28;20022;-35
2022/09/22 04:06:23;;;;;;;0.77;0.40;;;;;;;24.40;28.75;96960.53;5014901;28;20025;-36
2022/09/22 04:08:48;;;;;;;0.77;0.45;;;;;;;24.37;28.32;96958.03;5014575;28;20505;-36
2022/09/22 04:11:14;;;;;;;0.40;0.30;;;;;;;24.46;27.60;96955.75;5013278;28;20478;-36
2022/09/22 04:13:39;;;;;;;0.75;0.40;;;;;;;24.38;27.89;96956.75;5014646;28;20446;-36
2022/09/22 04:16:05;;;;;;;0.65;0.40;;;;;;;24.47;28.11;96960.06;5014506;28;20029;-36
2022/09/22 04:18:31;;;;;;;0.60;0.40;;;;;;;24.41;28.76;96967.59;5014593;28;20475;-36
2022/09/22 04:20:57;;;;;;;0.50;0.40;;;;;;;24.39;27.83;96961.06;5014285;28;20025;-36
2022/09/22 04:23:24;;;;;;;0.52;0.50;;;;;;;24.50;28.25;96953.47;5014286;28;20018;-36
2022/09/22 04:25:50;;;;;;;0.40;0.40;;;;;;;24.50;27.62;96953.47;5014124;28;20030;-36
2022/09/22 04:28:15;;;;;;;0.40;0.38;;;;;;;24.44;27.45;96958.28;5014432;28;20071;-36
2022/09/22 04:30:42;;;;;;;1.38;0.50;;;;;;;24.48;27.79;96958.75;5014431;28;20024;-36
2022/09/22 04:33:08;;;;;;;0.40;0.40;;;;;;;24.40;27.88;96957.78;5014438;28;20034;-36
2022/09/22 04:35:34;;;;;;;0.73;0.30;;;;;;;24.42;27.77;96960.81;5014128;28;20029;-37
2022/09/22 04:37:59;;;;;;;0.55;0.30;;;;;;;24.52;27.92;96964.81;5014196;28;20045;-36
2022/09/22 04:40:25;;;;;;;0.90;0.30;;;;;;;24.37;29.02;96967.09;5013997;28;20061;-36
2022/09/22 04:42:51;;;;;;;0.35;0.30;;;;;;;24.42;27.88;96960.81;5013974;28;20030;-36
2022/09/22 04:45:17;;;;;;;0.65;0.30;;;;;;;24.43;27.53;96967.09;5014084;28;20119;-36
2022/09/22 04:47:46;;;;;;;0.55;0.40;;;;;;;24.34;28.21;96968.88;5013938;28;20029;-36
2022/09/22 04:50:13;;;;;;;1.48;0.43;;;;;;;24.43;27.67;96967.09;5013936;28;20113;-36
2022/09/22 04:52:39;;;;;;;0.47;0.32;;;;;;;24.34;27.72;96973.66;5013905;28;20110;-38
2022/09/22 04:55:05;;;;;;;0.68;0.32;;;;;;;24.36;27.85;96981.50;5013743;28;20366;-36
2022/09/22 04:57:30;;;;;;;0.98;0.30;;;;;;;24.42;28.65;96979.44;5013888;28;20359;-37
2022/09/22 04:59:56;;;;;;;1.10;0.50;;;;;;;24.46;27.58;96975.16;5013699;28;20068;-36
2022/09/22 05:02:21;;;;;;;0.60;0.40;;;;;;;24.37;27.74;96978.19;5012550;28;20030;-36
2022/09/22 05:04:47;;;;;;;0.30;0.28;;;;;;;24.42;28.46;96982.97;5013658;28;20034;-36
2022/09/22 05:07:13;;;;;;;1.38;0.43;;;;;;;24.38;27.94;96987.25;5013663;28;20033;-36
2022/09/22 05:09:39;;;;;;;0.43;0.30;;;;;;;24.40;27.93;96979.94;5013574;28;20030;-37
2022/09/22 05:12:04;;;;;;;0.73;0.22;;;;;;;24.36;28.03;96985.00;5013680;28;20113;-37
2022/09/22 05:14:32;;;;;;;0.90;0.47;;;;;;;24.39;27.61;96989.53;5013512;28;20026;-36
2022/09/22 05:16:57;;;;;;;1.45;0.40;;;;;;;24.37;27.67;96986.50;5013472;28;20394;-36
2022/09/22 05:19:23;;;;;;;1.80;0.45;;;;;;;24.39;27.98;96978.44;5013644;28;20022;-36
2022/09/22 05:21:48;;;;;;;0.30;0.25;;;;;;;24.38;28.46;96988.00;5013679;28;20438;-36
2022/09/22 05:24:13;;;;;;;0.38;0.30;;;;;;;24.38;28.49;96990.03;5013562;28;20030;-37
2022/09/22 05:26:39;;;;;;;0.85;0.60;;;;;;;24.42;28.59;96985.00;5013587;28;20033;-36
2022/09/22 05:29:05;;;;;;;0.40;0.40;;;;;;;24.44;28.59;96985.25;5013703;28;20072;-36
2022/09/22 05:31:31;;;;;;;0.70;0.30;;;;;;;24.42;28.04;96980.22;5013447;28;20026;-35
2022/09/22 05:33:56;;;;;;;0.60;0.30;;;;;;;24.44;28.71;96983.22;5013398;28;20033;-36
2022/09/22 05:36:22;;;;;;;2.85;0.70;;;;;;;24.42;27.95;96988.53;5013163;28;20046;-35
2022/09/22 05:38:50;;;;;;;1.58;0.40;;;;;;;24.39;28.42;96992.31;5013332;28;20085;-36
2022/09/22 05:41:16;;;;;;;1.88;0.40;;;;;;;24.38;27.92;96998.34;5016364;28;20393;-36
2022/09/22 05:43:41;;;;;;;0.95;0.40;;;;;;;24.29;29.45;96997.34;5017572;28;20030;-35
2022/09/22 05:46:06;;;;;;;2.17;0.50;;;;;;;24.37;28.00;97003.13;5017167;28;20033;-36
2022/09/22 05:48:32;;;;;;;1.35;0.30;;;;;;;24.36;27.65;97001.63;5017330;28;20033;-35
2022/09/22 05:50:57;;;;;;;2.90;0.60;;;;;;;24.36;28.40;96984.25;5017257;28;20057;-35
2022/09/22 05:53:23;;;;;;;1.20;0.50;;;;;;;24.34;28.03;96993.84;5017287;28;20030;-36
2022/09/22 05:55:48;;;;;;;0.65;0.43;;;;;;;24.40;29.12;96990.28;5017101;28;20527;-35
2022/09/22 05:58:14;;;;;;;3.17;0.40;;;;;;;24.39;28.41;96992.31;5017129;28;20021;-36
2022/09/22 06:00:40;;;;;;;1.10;0.35;;;;;;;24.27;28.78;96999.09;5017086;28;20426;-35
2022/09/22 06:03:06;;;;;;;1.15;0.40;;;;;;;24.20;28.00;96991.28;5016924;28;20084;-37
2022/09/22 06:05:32;;;;;;;2.40;0.60;;;;;;;24.35;28.25;96997.38;5016864;28;20375;-36
2022/09/22 06:08:05;;;;;;;3.05;0.63;;;;;;;24.27;28.86;96993.56;5016866;28;20050;-35
2022/09/22 06:10:32;;;;;;;3.30;1.00;;;;;;;24.25;28.73;96996.09;5017020;28;20060;-36
2022/09/22 06:13:03;;;;;;;2.08;1.02;;;;;;;24.33;28.63;97005.41;5016725;28;20121;-36
2022/09/22 06:15:32;;;;;;;3.40;1.30;;;;;;;24.39;28.87;97006.16;5017025;28;20049;-36
2022/09/22 06:17:58;;;;;;;2.67;1.02;;;;;;;24.39;28.57;97008.19;5016800;28;20029;-36
2022/09/22 06:20:24;;;;;;;1.40;1.05;;;;;;;24.29;28.35;96999.38;5016431;28;20025;-35
2022/09/22 06:22:49;;;;;;;2.47;1.17;;;;;;;24.30;28.71;97006.41;5016523;28;20052;-36
2022/09/22 06:25:15;;;;;;;1.75;1.20;;;;;;;24.24;29.38;97011.94;5025157;28;20475;-35
2022/09/22 06:27:41;;;;;;;3.03;1.25;;;;;;;24.28;28.86;97011.72;5014652;28;20051;-36
2022/09/22 06:30:10;;;;;;;2.45;1.15;;;;;;;24.34;28.38;97004.16;5026152;28;20029;-36
2022/09/22 06:32:38;;;;;;;2.63;1.35;;;;;;;24.23;28.26;97002.13;5034097;28;20513;-36
2022/09/22 06:35:07;;;;;;;3.00;1.13;;;;;;;24.20;29.34;97010.69;5033970;28;20118;-37
2022/09/22 06:37:36;;;;;;;4.03;1.40;;;;;;;24.34;28.74;97015.25;5033943;28;20057;-36
2022/09/22 06:40:01;;;;;;;3.40;1.75;;;;;;;24.25;28.42;97007.91;5034219;28;20449;-36
2022/09/22 06:42:26;;;;;;;2.28;1.20;;;;;;;24.25;29.37;97010.69;5019160;28;20033;-35
2022/09/22 06:44:52;;;;;;;3.25;1.48;;;;;;;24.19;28.29;97009.91;5013987;28;20029;-36
2022/09/22 06:47:18;;;;;;;3.42;1.40;;;;;;;24.30;28.84;97015.50;5014147;28;20056;-36
2022/09/22 06:49:43;;;;;;;3.65;1.58;;;;;;;24.34;28.53;97023.56;5014154;28;20478;-37
2022/09/22 06:52:12;;;;;;;2.65;1.10;;;;;;;24.33;28.94;97025.59;5012892;28;20076;-36
2022/09/22 06:54:40;;;;;;;2.83;1.40;;;;;;;24.33;28.30;97024.81;5014010;28;20136;-36
2022/09/22 06:57:09;;;;;;;1.83;1.02;;;;;;;24.21;28.84;97026.81;5013989;28;20030;-35
2022/09/22 06:59:36;;;;;;;2.33;1.33;;;;;;;24.12;28.88;97021.50;5013582;28;20041;-36
2022/09/22 07:02:05;;;;;;;2.08;1.20;;;;;;;24.18;28.71;97013.94;5015956;28;20029;-38
2022/09/22 07:04:32;;;;;;;2.08;1.13;;;;;;;24.21;29.41;97020.50;5020907;28;20022;-36
2022/09/22 07:06:57;;;;;;;2.03;1.02;;;;;;;24.29;28.78;97030.63;5013957;28;20038;-36
2022/09/22 07:09:23;;;;;;;3.28;0.90;;;;;;;24.31;28.48;97016.25;5013851;28;20029;-36
2022/09/22 07:11:49;;;;;;;2.10;1.13;;;;;;;24.31;29.04;97021.78;5013617;28;20378;-36
2022/09/22 07:14:14;;;;;;;3.45;1.38;;;;;;;24.21;28.52;97023.28;5013754;28;20053;-36
2022/09/22 07:16:40;;;;;;;2.67;1.15;;;;;;;24.30;28.27;97026.59;5013661;28;20497;-36
2022/09/22 07:19:05;;;;;;;1.83;0.90;;;;;;;24.30;28.88;97029.34;5027681;28;20033;-37
2022/09/22 07:21:35;;;;;;;1.42;0.80;;;;;;;24.31;28.82;97032.88;5033211;28;20029;-36
2022/09/22 07:24:01;;;;;;;1.10;0.80;;;;;;;24.15;29.34;97022.50;5028199;28;20025;-36
2022/09/22 07:26:31;;;;;;;1.92;1.00;;;;;;;24.24;28.41;97022.28;5032148;28;20140;-36
2022/09/22 07:28:59;;;;;;;2.05;0.80;;;;;;;24.33;28.28;97027.59;5013515;28;20038;-36
2022/09/22 07:31:28;;;;;;;1.33;0.73;;;;;;;24.27;28.73;97030.34;5031272;28;20343;-36
2022/09/22 07:33:54;;;;;;;3.38;0.90;;;;;;;22.90;29.13;97038.41;5032729;28;20436;-32
2022/09/22 07:36:22;;;;;;;2.70;1.10;;;;;;;22.56;29.68;97037.41;5032015;28;20053;-34
2022/09/22 07:38:56;;;;;;;1.92;0.80;;;;;;;23.14;29.37;97027.72;5033004;28;20017;-34
2022/09/22 07:41:27;;;;;;;2.35;0.90;;;;;;;23.50;28.57;97028.91;5031527;28;20098;-34
2022/09/22 07:43:55;;;;;;;4.15;0.90;;;;;;;23.77;28.42;97024.72;5033176;28;20457;-34
2022/09/22 07:46:21;;;;;;;3.30;1.00;;;;;;;23.81;28.32;97030.00;5032947;28;20052;-34
2022/09/22 07:48:47;;;;;;;1.60;0.80;;;;;;;23.79;28.11;97032.53;5032335;28;20033;-34
2022/09/22 07:51:21;;;;;;;1.20;0.70;;;;;;;23.88;28.50;97046.13;5031459;28;20033;-34
2022/09/22 07:54:01;;;;;;;4.43;1.17;;;;;;;23.86;28.30;97038.31;5033000;28;20048;-34
2022/09/22 07:56:29;;;;;;;1.08;0.75;;;;;;;23.90;28.44;97046.41;5033010;28;20131;-34
2022/09/22 07:58:55;;;;;;;1.75;0.60;;;;;;;23.98;28.13;97048.16;5032820;28;20021;-35
2022/09/22 08:01:23;;;;;;;1.73;0.70;;;;;;;24.10;28.39;97039.91;5032955;28;20132;-34
2022/09/22 08:03:50;;;;;;;1.77;0.80;;;;;;;23.78;29.47;97039.31;5032466;28;20040;-34
2022/09/22 08:06:18;;;;;;;1.85;0.80;;;;;;;23.95;28.75;97040.13;5023777;28;20060;-34
2022/09/22 08:08:46;;;;;;;1.40;0.60;;;;;;;24.00;29.03;97047.66;5014584;28;20097;-34
2022/09/22 08:11:16;;;;;;;1.05;0.55;;;;;;;23.97;28.97;97048.69;5014471;28;20022;-34
2022/09/22 08:13:45;;;;;;;1.42;0.70;;;;;;;24.04;28.76;97047.44;5014904;28;20471;-34
2022/09/22 08:16:10;;;;;;;1.40;0.60;;;;;;;23.90;29.08;97046.41;5013883;28;20021;-34
2022/09/22 08:18:38;;;;;;;1.27;0.68;;;;;;;23.87;29.48;97048.16;5014761;28;20109;-34
2022/09/22 08:21:04;;;;;;;1.40;0.52;;;;;;;23.94;28.39;97044.91;5014199;28;20022;-34
2022/09/22 08:23:30;;;;;;;1.83;0.90;;;;;;;24.00;28.55;97042.88;5014427;28;20167;-34
2022/09/22 08:26:00;;;;;;;1.10;0.60;;;;;;;23.85;29.33;97053.47;5014241;28;20021;-34
2022/09/22 08:28:26;;;;;;;2.08;0.65;;;;;;;24.05;29.16;97048.94;5014402;28;20029;-34
2022/09/22 08:30:52;;;;;;;0.98;0.50;;;;;;;23.86;28.69;97054.94;5014143;28;20022;-34
2022/09/22 08:33:17;;;;;;;0.73;0.50;;;;;;;24.00;28.83;97064.28;5014243;28;20053;-34
2022/09/22 08:35:50;;;;;;;1.00;0.50;;;;;;;24.04;28.60;97061.28;5013920;28;20108;-34
2022/09/22 08:38:16;;;;;;;1.77;0.50;;;;;;;24.06;28.94;97050.47;5013292;28;20367;-34
2022/09/22 08:40:47;;;;;;;1.30;0.60;;;;;;;24.06;28.91;97056.00;5014274;28;20029;-36
2022/09/22 08:43:14;;;;;;;1.27;0.68;;;;;;;24.06;29.00;97053.22;5014139;28;20422;-34
2022/09/22 08:45:45;;;;;;;2.30;0.63;;;;;;;23.96;29.12;97047.94;5013938;28;20022;-35
2022/09/22 08:54:03;;;;;;;2.38;0.50;;;;;;;24.02;28.76;97049.94;5014043;28;20387;-34
2022/09/22 08:56:45;;;;;;;1.05;0.47;;;;;;;24.09;28.49;97049.47;5013904;28;20115;-34
2022/09/22 08:59:16;;;;;;;0.80;0.45;;;;;;;24.05;29.32;97046.94;5013907;28;20030;-34
2022/09/22 09:01:51;;;;;;;0.80;0.60;;;;;;;23.96;29.15;97050.72;5013984;28;20038;-34
2022/09/22 09:04:44;;;;;;;1.40;0.50;;;;;;;23.94;29.30;97052.47;5013979;28;20474;-34
2022/09/22 09:07:25;;;;;;;0.70;0.47;;;;;;;23.99;29.13;97049.69;5013873;28;20030;-36
2022/09/22 09:10:01;;;;;;;0.50;0.40;;;;;;;24.09;28.79;97049.47;5013961;28;20025;-35
2022/09/22 09:12:46;;;;;;;0.80;0.50;;;;;;;23.83;29.46;97047.66;5013877;28;20021;-34
2022/09/22 09:15:27;;;;;;;1.23;0.55;;;;;;;24.00;28.90;97058.75;5012630;28;20097;-34
2022/09/22 09:17:58;;;;;;;0.63;0.40;;;;;;;24.03;29.29;97051.47;5013634;28;20029;-34
2022/09/22 09:20:32;;;;;;;0.80;0.50;;;;;;;24.02;29.24;97050.69;5013744;28;20018;-34
2022/09/22 09:22:59;;;;;;;1.17;0.40;;;;;;;23.99;28.67;97049.69;5014017;28;20026;-34
2022/09/22 09:25:34;;;;;;;1.38;0.68;;;;;;;23.95;29.09;97057.50;5013603;28;20477;-34
2022/09/22 09:28:05;;;;;;;1.42;0.50;;;;;;;23.91;29.46;97050.69;5013469;28;20041;-34
2022/09/22 09:30:44;;;;;;;2.25;0.40;;;;;;;23.91;29.48;97048.66;5013610;28;20430;-34
2022/09/22 09:33:28;;;;;;;0.88;0.50;;;;;;;23.94;29.23;97050.44;5013446;28;20466;-34
2022/09/22 09:35:54;;;;;;;0.57;0.40;;;;;;;23.99;29.19;97058.00;5013231;28;20026;-34
2022/09/22 09:38:32;;;;;;;0.70;0.40;;;;;;;24.03;28.74;97062.53;5014073;28;20034;-34
2022/09/22 09:41:10;;;;;;;0.63;0.45;;;;;;;24.03;29.22;97051.47;5013359;28;20026;-34
2022/09/22 09:43:36;;;;;;;0.95;0.50;;;;;;;24.07;29.12;97057.53;5013570;28;20494;-34
2022/09/22 09:46:30;;;;;;;1.33;0.47;;;;;;;23.92;29.80;97058.50;5013303;28;20093;-34
2022/09/22 09:48:57;;;;;;;;;;;;;;;23.89;29.39;97048.41;5013776;28;20072;-34
2022/09/22 09:51:22;;;;;;;0.47;0.40;;;;;;;23.99;29.33;97055.22;5013287;28;19909;-34
2022/09/22 09:53:48;;;;;;;0.90;0.50;;;;;;;23.70;29.31;97052.91;5013174;28;20109;-34
2022/09/22 09:56:35;;;;;;;0.63;0.40;;;;;;;23.88;28.79;97052.44;5013449;28;20033;-34
2022/09/22 10:01:53;;;;;;;0.65;0.45;;;;;;;23.91;29.33;97051.44;5013632;28;20069;-34
2022/09/22 10:04:29;;;;;;;1.20;0.40;;;;;;;23.99;28.74;97049.69;5012341;28;20022;-34
2022/09/22 10:07:15;;;;;;;0.60;0.50;;;;;;;23.84;29.35;97043.63;5011959;28;20028;-34
2022/09/22 10:09:42;;;;;;;0.68;0.45;;;;;;;23.89;28.94;97037.31;5013200;28;20040;-35
2022/09/22 10:12:28;;;;;;;2.28;0.68;;;;;;;23.94;29.34;97039.38;5013108;28;20026;-35
2022/09/22 10:14:57;;;;;;;0.95;0.47;;;;;;;23.79;29.12;97024.97;5013116;28;20434;-34
2022/09/22 10:17:26;;;;;;;1.23;0.50;;;;;;;23.87;29.13;97041.84;5013095;28;20018;-34
2022/09/22 10:19:51;;;;;;;1.08;0.40;;;;;;;23.77;29.43;97041.34;5013539;28;20026;-34
2022/09/22 10:22:26;;;;;;;0.60;0.40;;;;;;;23.81;29.38;97033.53;5013093;28;20088;-34
2022/09/22 10:24:53;;;;;;;1.70;0.57;;;;;;;23.88;29.41;97035.81;5013063;28;20026;-34
2022/09/22 10:27:20;;;;;;;0.65;0.50;;;;;;;23.90;29.09;97041.63;5016046;28;20018;-34
2022/09/22 10:29:46;;;;;;;0.55;0.40;;;;;;;23.90;29.26;97032.53;5016544;28;20061;-34
2022/09/22 10:32:14;;;;;;;1.05;0.52;;;;;;;23.95;29.06;97029.03;5016967;28;20149;-34
2022/09/22 10:34:50;;;;;;;0.93;0.50;;;;;;;23.87;28.51;97031.53;5016335;28;20018;-34
2022/09/22 10:37:22;;;;;;;1.65;0.50;;;;;;;23.99;28.85;97035.84;5016496;28;20494;-34
2022/09/22 10:40:00;;;;;;;1.05;0.68;;;;;;;24.07;29.10;97030.56;5016284;28;20372;-36
2022/09/22 10:42:42;;;;;;;0.60;0.45;;;;;;;23.80;28.86;97036.81;5016352;28;20463;-34
2022/09/22 10:45:18;;;;;;;1.23;0.40;;;;;;;23.99;28.92;97038.59;5016264;28;20122;-34
2022/09/22 10:48:06;;;;;;;2.22;0.60;;;;;;;24.03;28.28;97034.84;5016241;28;20056;-34
2022/09/22 10:50:53;;;;;;;0.80;0.50;;;;;;;24.16;28.69;97038.63;5016036;28;20033;-34
2022/09/22 10:53:34;;;;;;;0.68;0.40;;;;;;;23.88;29.10;97035.06;5016252;28;20528;-34
2022/09/22 10:56:27;;;;;;;1.10;0.50;;;;;;;23.88;29.13;97038.59;5016218;28;20026;-34
2022/09/22 10:59:19;;;;;;;1.60;0.80;;;;;;;24.00;28.97;97034.56;5016055;28;20029;-34
2022/09/22 11:02:09;;;;;;;2.33;0.80;;;;;;;24.03;28.98;97040.38;5016012;28;20474;-34
2022/09/22 11:04:34;;;;;;;0.85;0.60;;;;;;;24.14;28.71;97030.06;5015850;28;20032;-34
2022/09/22 11:13:11;;;;;;;4.13;1.80;;;;;;;23.97;29.08;97016.22;5015800;28;20068;-35
2022/09/22 11:15:53;;;;;;;3.13;2.20;;;;;;;24.16;28.73;97013.69;5015674;28;20536;-34
2022/09/22 11:18:27;;;;;;;10.30;5.68;;;;;;;23.81;29.00;97010.63;5015504;28;20036;-34
2022/09/22 11:21:19;;;;;;;5.43;3.58;;;;;;;23.99;28.87;97008.13;5015359;28;20049;-34
2022/09/22 11:23:44;;;;;;;9.23;3.85;;;;;;;23.95;29.07;97002.09;5014256;28;20048;-34
2022/09/22 11:26:32;;;;;;;5.85;3.60;;;;;;;24.06;28.88;97001.34;5015400;28;20025;-35
2022/09/22 11:29:21;;;;;;;7.90;4.88;;;;;;;23.94;28.11;96999.81;5015390;28;20105;-34
2022/09/22 11:31:52;;;;;;;7.78;4.25;;;;;;;23.90;28.90;96991.00;5015306;28;20026;-34
2022/09/22 11:34:53;;;;;;;6.80;4.68;;;;;;;23.92;28.07;96992.00;5015199;28;20022;-34
2022/09/22 11:37:31;;;;;;;7.28;4.85;;;;;;;24.06;29.19;96986.75;5014423;28;20497;-34
2022/09/22 11:40:33;;;;;;;4.85;3.35;;;;;;;23.43;27.33;96989.84;5014956;28;20160;-34
2022/09/22 11:43:17;;;;;;;7.70;4.15;;;;;;;23.92;29.21;96980.16;5015020;28;20442;-34
2022/09/22 11:45:52;;;;;;;8.30;4.40;;;;;;;24.14;28.52;96979.44;5014009;28;20026;-35
2022/09/22 11:48:47;;;;;;;8.80;4.30;;;;;;;24.23;28.45;96973.69;5015148;28;20470;-34
2022/09/22 11:51:45;;;;;;;6.57;4.20;;;;;;;24.19;28.45;96973.13;5015017;28;20029;-34
2022/09/22 11:54:38;;;;;;;4.80;2.88;;;;;;;23.88;27.99;96974.13;5015006;28;20105;-34
2022/09/22 11:57:08;;;;;;;;;;;;;;;23.55;27.82;96972.81;5015171;28;20033;-34
2022/09/22 11:59:58;;;;;;;4.07;2.60;;;;;;;23.82;27.60;96970.59;5015027;28;20262;-34
2022/09/22 12:02:31;;;;;;;3.22;2.20;;;;;;;23.73;28.06;96973.63;5014787;28;20375;-34
2022/09/22 12:05:25;;;;;;;5.20;2.97;;;;;;;23.96;28.59;96970.38;5014727;28;20041;-35
2022/09/22 12:08:01;;;;;;;4.75;2.85;;;;;;;24.09;27.49;96961.56;5014095;28;20042;-34